メインページ
METAR-TAF:

METAR-TAF

空港 :

ウィスラー, ブリティッシュコロンビア州, カナダ

緯度: 50-08N, 経度: 122-57W, 海抜: 658m

現時点の気象観測

当レポートは7時間54分前の01:00(UTC)に作成
の風 2kt
気温 21°C
湿度 49%
気圧 1018 hPa
視程: 24.1km
高度5700ftの千切れ雲あり
高度9200ftの曇り

METAR: CWAE 030100Z 18002KT 15SM BKN057 OVC092 21/10 A3006 RMK CU6AC2 LAST OBS/NEXT 031300UTC WND ESTD SLP175 DENSITY ALT 3200FT

時間: 01:54 (08:54 UTC)


TAF: 見つかりません

4,000以上の空港の気象観測と天気予報(METAR報とTAF報)

利用可能な観測所は地図上に黄色い丸と赤い丸で示す。

丸の上にカーソルを重ねると観測所名を参照できる。

次にクリックすると気象観測と天気予報を参照できる。

マップの切り替え:黒色「×」印の緑ボタンをクリックして拡大、「-」印の緑ボタンをクリックして縮小、緑色の三角印をクリックして隣りの地図に切り替え


METAR-TAF: